createdAt,value
2019-05-11T00:02:14.783Z,1.13
2019-05-11T00:04:44.679Z,0.83
2019-05-11T00:07:14.588Z,1.10
2019-05-11T00:09:57.567Z,1.20
2019-05-11T00:12:22.056Z,1.00
2019-05-11T00:14:51.920Z,0.93
2019-05-11T00:17:22.516Z,0.80
2019-05-11T00:19:52.442Z,1.07
2019-05-11T00:22:22.302Z,0.97
2019-05-11T00:24:52.145Z,0.90
2019-05-11T00:27:21.933Z,0.90
2019-05-11T00:29:51.809Z,0.90
2019-05-11T00:32:22.979Z,1.30
2019-05-11T00:34:52.836Z,1.10
2019-05-11T00:37:22.671Z,1.10
2019-05-11T00:39:52.672Z,1.30
2019-05-11T00:42:22.499Z,1.13
2019-05-11T00:44:52.328Z,0.90
2019-05-11T00:47:22.239Z,1.10
2019-05-11T00:49:52.150Z,0.87
2019-05-11T00:52:23.351Z,1.00
2019-05-11T00:54:53.271Z,0.90
2019-05-11T00:57:23.997Z,1.17
2019-05-11T00:59:53.905Z,1.17
2019-05-11T01:02:24.317Z,1.13
2019-05-11T01:04:54.243Z,1.23
2019-05-11T01:07:24.109Z,1.37
2019-05-11T01:09:54.032Z,1.70
2019-05-11T01:12:25.498Z,1.10
2019-05-11T01:14:55.393Z,0.80
2019-05-11T01:17:25.209Z,0.90
2019-05-11T01:19:55.045Z,1.10
2019-05-11T01:22:24.781Z,0.90
2019-05-11T01:24:54.552Z,0.70
2019-05-11T01:27:24.366Z,0.60
2019-05-11T01:29:54.281Z,0.87
2019-05-11T01:32:24.176Z,0.73
2019-05-11T01:34:53.967Z,1.33
2019-05-11T01:37:23.851Z,0.83
2019-05-11T01:39:53.743Z,0.90
2019-05-11T01:42:23.648Z,1.20
2019-05-11T01:44:53.542Z,0.70
2019-05-11T01:47:23.488Z,0.70
2019-05-11T01:49:53.320Z,0.80
2019-05-11T01:52:23.226Z,1.00
2019-05-11T01:54:53.946Z,1.00
2019-05-11T01:57:23.856Z,0.80
2019-05-11T01:59:53.741Z,0.90
2019-05-11T02:02:23.532Z,1.03
2019-05-11T02:05:11.408Z,1.20
2019-05-11T02:07:41.159Z,1.13
2019-05-11T02:10:11.213Z,1.10
2019-05-11T02:12:41.065Z,1.27
2019-05-11T02:15:10.806Z,1.00
2019-05-11T02:17:41.795Z,1.00
2019-05-11T02:20:11.686Z,1.13
2019-05-11T02:22:42.641Z,0.97
2019-05-11T02:25:15.024Z,1.20
2019-05-11T02:27:44.874Z,0.83
2019-05-11T02:30:17.079Z,1.10
2019-05-11T02:32:46.987Z,0.90
2019-05-11T02:35:16.885Z,0.90
2019-05-11T02:37:46.794Z,1.00
2019-05-11T02:40:17.337Z,1.10
2019-05-11T02:42:47.247Z,1.00
2019-05-11T02:45:20.003Z,0.93
2019-05-11T02:47:49.856Z,0.97
2019-05-11T02:50:19.863Z,0.90
2019-05-11T02:52:49.755Z,0.90
2019-05-11T02:55:19.631Z,0.93
2019-05-11T02:57:51.191Z,0.80
2019-05-11T03:00:24.030Z,1.00
2019-05-11T03:02:53.992Z,0.90
2019-05-11T03:05:24.404Z,1.00
2019-05-11T03:07:54.273Z,1.27
2019-05-11T03:10:25.005Z,1.10
2019-05-11T03:12:54.763Z,0.97
2019-05-11T03:15:24.659Z,0.87
2019-05-11T03:17:54.576Z,1.03
2019-05-11T03:20:24.490Z,1.00
2019-05-11T03:22:54.686Z,0.90
2019-05-11T03:25:24.580Z,1.40
2019-05-11T03:27:54.425Z,1.00
2019-05-11T03:30:25.838Z,0.80
2019-05-11T03:32:55.656Z,0.80
2019-05-11T03:35:26.137Z,1.20
2019-05-11T03:37:56.042Z,0.80
2019-05-11T03:40:25.862Z,0.83
2019-05-11T03:42:55.612Z,1.00
2019-05-11T03:45:25.459Z,1.00
2019-05-11T03:47:55.398Z,1.10
2019-05-11T03:50:25.322Z,0.80
2019-05-11T03:52:55.245Z,0.90
2019-05-11T03:55:25.150Z,0.70
2019-05-11T03:57:54.999Z,0.87
2019-05-11T04:00:25.030Z,1.00
2019-05-11T04:02:55.140Z,0.93
2019-05-11T04:05:25.435Z,1.33
2019-05-11T04:07:55.336Z,1.43
2019-05-11T04:10:26.345Z,0.80
2019-05-11T04:12:56.171Z,0.93
2019-05-11T04:15:26.033Z,1.00
2019-05-11T04:17:55.902Z,1.07
2019-05-11T04:20:25.829Z,1.30
2019-05-11T04:22:55.653Z,1.10
2019-05-11T04:25:25.595Z,1.67
2019-05-11T04:27:56.148Z,1.90
2019-05-11T04:30:26.115Z,1.33
2019-05-11T04:32:57.680Z,1.10
2019-05-11T04:35:27.625Z,1.30
2019-05-11T04:37:57.313Z,1.27
2019-05-11T04:40:27.259Z,1.30
2019-05-11T04:42:57.027Z,1.73
2019-05-11T04:45:26.970Z,1.37
2019-05-11T04:47:58.123Z,1.40
2019-05-11T04:50:30.463Z,1.20
2019-05-11T04:53:00.412Z,1.53
2019-05-11T04:55:30.832Z,1.37
2019-05-11T04:58:00.674Z,1.30
2019-05-11T05:00:30.618Z,1.40
2019-05-11T05:03:00.363Z,1.90
2019-05-11T05:05:30.395Z,1.97
2019-05-11T05:08:09.140Z,1.97
2019-05-11T05:10:33.385Z,1.47
2019-05-11T05:13:10.656Z,1.93
2019-05-11T05:15:36.610Z,1.90
2019-05-11T05:18:06.524Z,1.40
2019-05-11T05:20:36.466Z,1.30
2019-05-11T05:23:06.368Z,1.90
2019-05-11T05:25:36.331Z,1.60
2019-05-11T05:28:07.824Z,1.20
2019-05-11T05:30:37.717Z,1.83
2019-05-11T05:33:09.075Z,1.43
2019-05-11T05:35:38.935Z,1.67
2019-05-11T05:38:08.702Z,1.40
2019-05-11T05:40:38.559Z,1.30
2019-05-11T05:43:08.393Z,1.30
2019-05-11T05:45:38.349Z,1.33
2019-05-11T05:48:08.176Z,1.40
2019-05-11T05:50:37.971Z,1.10
2019-05-11T05:53:07.856Z,1.27
2019-05-11T05:55:37.768Z,1.10
2019-05-11T05:58:07.674Z,1.30
2019-05-11T06:00:37.641Z,1.07
2019-05-11T06:03:07.321Z,1.20
2019-05-11T06:05:37.185Z,1.40
2019-05-11T06:08:07.127Z,1.50
2019-05-11T06:10:37.536Z,1.20
2019-05-11T06:13:07.617Z,1.43
2019-05-11T06:15:37.449Z,1.03
2019-05-11T06:18:07.242Z,1.27
2019-05-11T06:20:37.172Z,1.00
2019-05-11T06:23:07.724Z,1.10
2019-05-11T06:25:37.497Z,1.50
2019-05-11T06:28:07.368Z,1.10
2019-05-11T06:30:37.127Z,1.17
2019-05-11T06:33:06.991Z,1.13
2019-05-11T06:35:36.929Z,1.00
2019-05-11T06:38:07.363Z,1.03
2019-05-11T06:40:37.072Z,1.00
2019-05-11T06:43:06.923Z,1.10
2019-05-11T06:45:37.132Z,1.00
2019-05-11T06:48:07.022Z,1.10
2019-05-11T06:50:36.925Z,1.10
2019-05-11T06:53:06.849Z,1.00
2019-05-11T06:55:36.774Z,1.17
2019-05-11T06:58:06.482Z,0.90
2019-05-11T07:00:36.388Z,1.13
2019-05-11T07:03:06.344Z,1.10
2019-05-11T07:05:36.081Z,0.80
2019-05-11T07:08:06.039Z,1.50
2019-05-11T07:10:35.976Z,0.70
2019-05-11T07:13:06.229Z,1.00
2019-05-11T07:15:37.200Z,0.80
2019-05-11T07:18:07.094Z,0.80
2019-05-11T07:20:49.467Z,0.80
2019-05-11T07:23:08.478Z,0.87
2019-05-11T07:25:38.340Z,1.00
2019-05-11T07:28:08.131Z,0.90
2019-05-11T07:30:38.015Z,0.90
2019-05-11T07:33:09.380Z,0.90
2019-05-11T07:35:39.327Z,1.17
2019-05-11T07:38:10.238Z,0.60
2019-05-11T07:40:39.946Z,0.80
2019-05-11T07:43:10.035Z,0.90
2019-05-11T07:45:40.138Z,1.03
2019-05-11T07:48:10.966Z,0.70
2019-05-11T07:50:40.851Z,0.80
2019-05-11T07:53:10.757Z,0.90
2019-05-11T07:55:40.596Z,0.80
2019-05-11T07:58:10.815Z,0.90
2019-05-11T08:00:40.629Z,1.00
2019-05-11T08:03:10.542Z,0.80
2019-05-11T08:05:40.271Z,1.00
2019-05-11T08:08:10.473Z,0.93
2019-05-11T08:10:40.400Z,0.87
2019-05-11T08:13:10.245Z,0.63
2019-05-11T08:15:40.124Z,0.60
2019-05-11T08:18:09.997Z,0.90
2019-05-11T08:20:39.923Z,0.90
2019-05-11T08:23:09.774Z,0.90
2019-05-11T08:25:39.683Z,1.30
2019-05-11T08:28:12.128Z,0.80
2019-05-11T08:30:41.880Z,0.90
2019-05-11T08:33:11.828Z,0.83
2019-05-11T08:35:41.588Z,0.80
2019-05-11T08:38:11.454Z,0.80
2019-05-11T08:40:41.266Z,1.00
2019-05-11T08:45:59.791Z,0.80
2019-05-11T08:48:29.568Z,1.07
2019-05-11T08:50:59.377Z,0.90
2019-05-11T08:53:29.027Z,0.80
2019-05-11T08:55:59.897Z,0.70
2019-05-11T08:58:29.715Z,0.70
2019-05-11T09:00:59.518Z,0.87
2019-05-11T09:03:29.538Z,0.50
2019-05-11T09:05:59.348Z,0.90
2019-05-11T09:08:29.221Z,0.60
2019-05-11T09:10:59.009Z,0.70
2019-05-11T09:13:28.840Z,0.60
2019-05-11T09:15:58.936Z,0.60
2019-05-11T09:18:28.866Z,0.53
2019-05-11T09:20:58.666Z,0.60
2019-05-11T09:23:34.468Z,0.70
2019-05-11T09:26:00.158Z,1.30
2019-05-11T09:28:29.946Z,0.50
2019-05-11T09:30:59.744Z,0.50
2019-05-11T09:33:29.515Z,0.60
2019-05-11T09:35:59.309Z,0.77
2019-05-11T09:38:29.079Z,0.60
2019-05-11T09:40:58.831Z,0.57
2019-05-11T09:43:28.642Z,0.70
2019-05-11T09:45:58.448Z,0.47
2019-05-11T09:48:28.544Z,0.70
2019-05-11T09:50:58.869Z,0.70
2019-05-11T09:53:28.891Z,0.60
2019-05-11T09:55:59.412Z,0.50
2019-05-11T09:58:29.335Z,0.60
2019-05-11T10:00:59.275Z,0.70
2019-05-11T10:03:29.048Z,0.57
2019-05-11T10:05:58.828Z,0.80
2019-05-11T10:08:28.782Z,0.60
2019-05-11T10:10:58.605Z,0.70
2019-05-11T10:13:28.381Z,0.63
2019-05-11T10:16:04.673Z,0.60
2019-05-11T10:18:29.677Z,0.80
2019-05-11T10:20:59.444Z,0.53
2019-05-11T10:23:30.157Z,1.10
2019-05-11T10:25:59.908Z,0.80
2019-05-11T10:28:29.672Z,0.60
2019-05-11T10:30:59.463Z,0.70
2019-05-11T10:33:29.242Z,0.77
2019-05-11T10:36:02.579Z,0.60
2019-05-11T10:38:30.394Z,0.53
2019-05-11T10:41:00.236Z,0.60
2019-05-11T10:43:29.978Z,0.77
2019-05-11T10:45:59.713Z,1.10
2019-05-11T10:48:30.885Z,0.60
2019-05-11T10:51:01.308Z,0.80
2019-05-11T10:53:31.247Z,0.90
2019-05-11T10:56:01.183Z,0.70
2019-05-11T10:58:31.068Z,0.90
2019-05-11T11:01:00.826Z,0.70
2019-05-11T11:03:30.776Z,0.60
2019-05-11T11:06:00.563Z,0.93
2019-05-11T11:08:30.350Z,0.60
2019-05-11T11:11:00.050Z,0.70
2019-05-11T11:13:29.977Z,1.03
2019-05-11T11:16:02.027Z,0.60
2019-05-11T11:18:31.227Z,0.70
2019-05-11T11:21:13.425Z,0.73
2019-05-11T11:23:43.185Z,0.67
2019-05-11T11:29:02.633Z,0.57
2019-05-11T11:31:32.348Z,0.60
2019-05-11T11:34:02.134Z,0.50
2019-05-11T11:36:31.808Z,0.70
2019-05-11T11:39:01.783Z,0.50
2019-05-11T11:41:31.763Z,0.70
2019-05-11T11:44:01.557Z,1.33
2019-05-11T11:46:32.351Z,0.70
2019-05-11T11:49:04.476Z,0.67
2019-05-11T11:51:37.659Z,0.60
2019-05-11T11:54:08.745Z,0.50
2019-05-11T11:56:38.313Z,0.67
2019-05-11T11:59:08.548Z,0.70
2019-05-11T12:01:38.728Z,0.50
2019-05-11T12:04:08.650Z,0.60
2019-05-11T12:06:38.643Z,0.73
2019-05-11T12:09:09.813Z,0.40
2019-05-11T12:11:41.054Z,0.80
2019-05-11T12:14:10.843Z,0.60
2019-05-11T12:16:40.633Z,0.70
2019-05-11T12:19:10.416Z,0.80
2019-05-11T12:24:37.594Z,0.50
2019-05-11T12:27:07.837Z,0.60
2019-05-11T12:29:38.515Z,0.60
2019-05-11T12:32:09.966Z,0.80
2019-05-11T12:34:40.857Z,0.70
2019-05-11T12:37:10.615Z,0.70
2019-05-11T12:39:40.471Z,0.57
2019-05-11T12:42:10.317Z,0.77
2019-05-11T12:44:40.035Z,0.57
2019-05-11T12:47:21.097Z,0.63
2019-05-11T12:49:41.327Z,0.77
2019-05-11T12:52:12.183Z,0.50
2019-05-11T12:54:41.819Z,0.60
2019-05-11T12:57:11.777Z,0.60
2019-05-11T12:59:41.478Z,0.40
2019-05-11T13:02:11.277Z,0.60
2019-05-11T13:04:41.074Z,0.70
2019-05-11T13:07:10.863Z,0.70
2019-05-11T13:09:40.649Z,0.40
2019-05-11T13:12:10.423Z,0.70
2019-05-11T13:14:40.209Z,0.47
2019-05-11T13:17:09.989Z,0.60
2019-05-11T13:19:40.796Z,0.50
2019-05-11T13:22:10.812Z,0.60
2019-05-11T13:24:40.850Z,0.60
2019-05-11T13:27:10.851Z,0.80
2019-05-11T13:29:40.794Z,0.50
2019-05-11T13:32:10.536Z,0.40
2019-05-11T13:34:40.390Z,0.50
2019-05-11T13:37:10.352Z,0.50
2019-05-11T13:39:40.228Z,0.50
2019-05-11T13:42:09.987Z,0.50
2019-05-11T13:44:39.908Z,0.42
2019-05-11T13:47:10.820Z,0.50
2019-05-11T13:49:40.762Z,0.75
2019-05-11T13:52:10.678Z,0.47
2019-05-11T13:54:40.581Z,0.70
2019-05-11T13:57:10.465Z,0.40
2019-05-11T13:59:40.301Z,0.50
2019-05-11T14:02:11.064Z,0.65
2019-05-11T14:04:41.180Z,0.53
2019-05-11T14:09:59.723Z,0.60
2019-05-11T14:12:29.482Z,0.55
2019-05-11T14:14:59.324Z,0.72
2019-05-11T14:17:31.754Z,0.70
2019-05-11T14:20:00.702Z,0.50
2019-05-11T14:22:30.457Z,0.40
2019-05-11T14:25:00.241Z,0.60
2019-05-11T14:27:30.239Z,0.40
2019-05-11T14:30:03.943Z,0.57
2019-05-11T14:32:38.937Z,0.70
2019-05-11T14:35:12.010Z,0.60
2019-05-11T14:37:40.037Z,0.65
2019-05-11T14:40:10.752Z,0.53
2019-05-11T14:42:40.451Z,0.60
2019-05-11T14:45:10.215Z,0.62
2019-05-11T14:47:42.673Z,0.47
2019-05-11T14:50:11.516Z,0.60
2019-05-11T14:52:41.386Z,0.50
2019-05-11T14:55:11.325Z,0.60
2019-05-11T14:57:41.080Z,0.60
2019-05-11T15:00:10.961Z,0.70
2019-05-11T15:02:49.313Z,0.62
2019-05-11T15:05:20.345Z,0.50
2019-05-11T15:07:52.433Z,0.53
2019-05-11T15:10:22.543Z,0.50
2019-05-11T15:12:52.323Z,0.70
2019-05-11T15:15:22.190Z,0.50
2019-05-11T15:17:52.133Z,0.42
2019-05-11T15:20:21.899Z,0.40
2019-05-11T15:22:51.688Z,0.65
2019-05-11T15:25:21.443Z,0.60
2019-05-11T15:27:51.142Z,0.78
2019-05-11T15:30:22.237Z,0.40
2019-05-11T15:32:52.022Z,0.68
2019-05-11T15:35:21.835Z,0.50
2019-05-11T15:37:51.628Z,0.60
2019-05-11T15:40:22.783Z,0.45
2019-05-11T15:42:52.586Z,0.30
2019-05-11T15:45:22.375Z,0.50
2019-05-11T15:47:52.228Z,0.50
2019-05-11T15:50:22.377Z,0.40
2019-05-11T15:52:52.138Z,0.30
2019-05-11T15:55:21.941Z,0.55
2019-05-11T15:57:51.699Z,0.53
2019-05-11T16:00:21.926Z,0.50
2019-05-11T16:02:52.883Z,0.50
2019-05-11T16:05:22.873Z,0.60
2019-05-11T16:07:52.577Z,0.40
2019-05-11T16:10:22.387Z,0.47
2019-05-11T16:12:52.161Z,0.50
2019-05-11T16:15:21.947Z,0.50
2019-05-11T16:17:51.695Z,0.40
2019-05-11T16:20:21.493Z,0.40
2019-05-11T16:22:51.287Z,0.50
2019-05-11T16:25:21.089Z,0.40
2019-05-11T16:27:50.849Z,0.88
2019-05-11T16:30:21.659Z,1.05
2019-05-11T16:32:51.687Z,0.82
2019-05-11T16:35:21.746Z,0.68
2019-05-11T16:37:51.509Z,0.65
2019-05-11T16:40:22.327Z,0.82
2019-05-11T16:42:52.061Z,0.60
2019-05-11T16:45:23.911Z,0.50
2019-05-11T16:47:53.024Z,0.40
2019-05-11T16:50:22.742Z,0.50
2019-05-11T16:52:52.503Z,0.70
2019-05-11T16:55:22.286Z,0.60
2019-05-11T16:57:52.023Z,0.90
2019-05-11T17:00:23.259Z,0.75
2019-05-11T17:02:54.548Z,0.50
2019-05-11T17:05:26.847Z,0.47
2019-05-11T17:07:55.666Z,0.80
2019-05-11T17:10:25.464Z,0.80
2019-05-11T17:12:55.177Z,0.80
2019-05-11T17:15:25.094Z,0.78
2019-05-11T17:17:55.012Z,0.68
2019-05-11T17:20:24.747Z,0.50
2019-05-11T17:22:54.521Z,0.70
2019-05-11T17:25:24.442Z,0.75
2019-05-11T17:27:54.335Z,0.60
2019-05-11T17:30:24.156Z,0.70
2019-05-11T17:32:53.936Z,0.37
2019-05-11T17:35:23.797Z,0.50
2019-05-11T17:37:53.517Z,0.62
2019-05-11T17:40:23.703Z,0.78
2019-05-11T17:42:54.257Z,0.50
2019-05-11T17:45:24.302Z,0.50
2019-05-11T17:47:54.092Z,0.82
2019-05-11T17:50:23.841Z,0.80
2019-05-11T17:52:53.630Z,0.70
2019-05-11T17:55:24.976Z,0.70
2019-05-11T17:57:54.666Z,0.53
2019-05-11T18:00:24.624Z,0.50
2019-05-11T18:02:54.589Z,0.90
2019-05-11T18:05:24.358Z,0.50
2019-05-11T18:07:54.118Z,0.50
2019-05-11T18:10:23.876Z,0.40
2019-05-11T18:12:53.821Z,0.57
2019-05-11T18:15:24.775Z,0.60
2019-05-11T18:17:54.541Z,0.60
2019-05-11T18:20:24.366Z,0.60
2019-05-11T18:22:54.294Z,0.57
2019-05-11T18:25:25.082Z,0.40
2019-05-11T18:27:54.986Z,0.42
2019-05-11T18:30:24.811Z,0.50
2019-05-11T18:32:54.631Z,0.50
2019-05-11T18:35:24.459Z,0.68
2019-05-11T18:37:54.250Z,0.50
2019-05-11T18:40:24.035Z,0.53
2019-05-11T18:42:53.840Z,0.60
2019-05-11T18:45:23.611Z,0.50
2019-05-11T18:47:53.433Z,0.47
2019-05-11T18:50:30.538Z,0.50
2019-05-11T18:52:54.657Z,0.68
2019-05-11T18:55:24.436Z,0.50
2019-05-11T18:57:54.238Z,0.50
2019-05-11T19:00:24.118Z,0.50
2019-05-11T19:02:53.995Z,0.57
2019-05-11T19:05:23.859Z,0.42
2019-05-11T19:07:53.618Z,0.40
2019-05-11T19:10:23.444Z,0.40
2019-05-11T19:12:53.339Z,0.50
2019-05-11T19:15:23.145Z,0.50
2019-05-11T19:17:53.048Z,0.47
2019-05-11T19:20:22.825Z,0.50
2019-05-11T19:22:52.567Z,0.57
2019-05-11T19:25:22.395Z,0.50
2019-05-11T19:27:56.214Z,0.40
2019-05-11T19:30:27.750Z,0.57
2019-05-11T19:32:59.024Z,0.60
2019-05-11T19:35:31.605Z,0.60
2019-05-11T19:38:01.501Z,0.80
2019-05-11T19:40:31.390Z,0.88
2019-05-11T19:43:01.099Z,0.72
2019-05-11T19:45:31.052Z,0.70
2019-05-11T19:48:00.775Z,0.60
2019-05-11T19:50:30.570Z,0.50
2019-05-11T19:53:00.568Z,0.50
2019-05-11T19:55:30.363Z,0.80
2019-05-11T19:58:00.185Z,0.57
2019-05-11T20:00:30.230Z,0.90
2019-05-11T20:02:59.960Z,0.60
2019-05-11T20:05:29.791Z,0.57
2019-05-11T20:07:59.788Z,0.50
2019-05-11T20:10:29.597Z,0.70
2019-05-11T20:12:59.684Z,0.70
2019-05-11T20:15:31.369Z,0.83
2019-05-11T20:18:01.743Z,0.50
2019-05-11T20:20:31.692Z,0.80
2019-05-11T20:23:01.596Z,0.80
2019-05-11T20:25:31.562Z,1.10
2019-05-11T20:28:01.504Z,1.07
2019-05-11T20:30:32.509Z,1.47
2019-05-11T20:33:02.467Z,0.80
2019-05-11T20:35:32.669Z,1.30
2019-05-11T20:38:02.623Z,1.10
2019-05-11T20:40:32.399Z,0.90
2019-05-11T20:43:02.169Z,0.90
2019-05-11T20:45:31.999Z,0.90
2019-05-11T20:48:01.914Z,1.00
2019-05-11T20:50:32.009Z,0.77
2019-05-11T20:53:02.918Z,0.70
2019-05-11T20:55:32.900Z,0.70
2019-05-11T20:58:02.820Z,0.60
2019-05-11T21:00:32.733Z,0.73
2019-05-11T21:03:03.673Z,0.67
2019-05-11T21:05:34.862Z,0.70
2019-05-11T21:08:08.320Z,0.90
2019-05-11T21:10:38.625Z,0.70
2019-05-11T21:13:09.678Z,0.77
2019-05-11T21:15:39.544Z,0.80
2019-05-11T21:18:09.275Z,0.80
2019-05-11T21:20:39.096Z,1.10
2019-05-11T21:23:09.022Z,0.80
2019-05-11T21:25:39.720Z,0.70
2019-05-11T21:28:09.556Z,0.67
2019-05-11T21:30:40.031Z,0.83
2019-05-11T21:33:09.942Z,0.70
2019-05-11T21:35:50.054Z,0.50
2019-05-11T21:38:19.861Z,0.80
2019-05-11T21:40:49.683Z,0.90
2019-05-11T21:43:19.363Z,0.60
2019-05-11T21:45:50.158Z,0.53
2019-05-11T21:48:19.992Z,0.87
2019-05-11T21:50:51.102Z,1.03
2019-05-11T21:53:20.846Z,0.70
2019-05-11T21:55:50.783Z,0.73
2019-05-11T21:58:20.692Z,0.80
2019-05-11T22:00:50.561Z,0.70
2019-05-11T22:03:34.687Z,1.13
2019-05-11T22:06:08.449Z,0.70
2019-05-11T22:08:37.665Z,0.60
2019-05-11T22:11:08.707Z,0.80
2019-05-11T22:13:38.712Z,0.60
2019-05-11T22:16:08.787Z,0.70
2019-05-11T22:18:39.660Z,0.83
2019-05-11T22:21:09.495Z,0.60
2019-05-11T22:23:39.232Z,1.20
2019-05-11T22:26:09.034Z,0.50
2019-05-11T22:28:39.035Z,0.70
2019-05-11T22:31:08.802Z,0.83
2019-05-11T22:33:38.650Z,0.60
2019-05-11T22:36:08.462Z,1.00
2019-05-11T22:38:38.729Z,1.03
2019-05-11T22:41:09.632Z,0.70
2019-05-11T22:43:40.411Z,0.73
2019-05-11T22:46:10.240Z,0.80
2019-05-11T22:48:40.004Z,0.70
2019-05-11T22:51:09.869Z,0.97
2019-05-11T22:53:47.107Z,0.90
2019-05-11T22:56:12.281Z,1.10
2019-05-11T22:58:42.093Z,0.93
2019-05-11T23:01:11.874Z,0.90
2019-05-11T23:03:41.629Z,0.90
2019-05-11T23:06:11.393Z,0.70
2019-05-11T23:08:41.509Z,0.70
2019-05-11T23:11:11.370Z,0.80
2019-05-11T23:13:41.113Z,0.60
2019-05-11T23:16:10.991Z,0.93
2019-05-11T23:18:40.776Z,0.70
2019-05-11T23:21:11.539Z,0.63
2019-05-11T23:23:41.327Z,0.70
2019-05-11T23:26:11.113Z,0.70
2019-05-11T23:28:40.963Z,0.80
2019-05-11T23:31:10.704Z,0.60
2019-05-11T23:33:43.778Z,0.70
2019-05-11T23:36:13.627Z,0.60
2019-05-11T23:38:43.435Z,0.60
2019-05-11T23:41:24.154Z,0.60
2019-05-11T23:43:44.586Z,0.53
2019-05-11T23:46:17.544Z,0.60
2019-05-11T23:48:48.635Z,0.50
2019-05-11T23:51:18.649Z,0.50
2019-05-11T23:53:48.628Z,0.60
2019-05-11T23:56:18.380Z,0.70
2019-05-11T23:58:48.392Z,0.70
